Shiloh, Texas
Current Conditions -  °F | °C
As of 10:15 AM on Sunday 25 Jan 2015 (Local Time) from KLXY Reporting Station
Clear Clear  
Wind Chill: 13°   Ceiling: Unl
Heat Index: 13°   Visibility: 10mi
Dew Point:   Wind: 14mph
Humidity: 55%   Direction: 330°NNW
Pressure: 30.04"   Gusts: NA
Location:  31.6887°N, 96.511°W
Report Text: KLXY 251615Z AUTO 33012KT 10SM CLR 13/04 A3004 RMK AO2 T01310042
Loading
Personal Weather Stations






























Interactive Weather Map New forecast layout! Learn more

10-Day Weather Forecast

Advertisements
Track Severe Weather on mobile